METAR AND TAF INFORMATION
METAR FOR EDDB
ADDS - METARS form results

(1458 UTC 25 January 2022)
Data provider http://aviationweather.gov/metar/data/
 
METAR text: EDDB 251450Z 28010KT 5000 -DZ FEW005 BKN007 04/03 Q1030 TEMPO 4000 -DZ
Conditions at: EDDB (BERLIN/BRANDERNB, DE) observed 1450 UTC 25 January 2022
Temperature: 4.0°C (39°F)
Dewpoint: 3.0°C (37°F) [RH = 93%]
Pressure (altimeter): 30.41 inches Hg (1030.0 mb)
Winds: from the W (280 degrees) at 12 MPH (10 knots; 5.1 m/s)
Visibility: 3 miles ( 5 km)
Ceiling: 700 feet AGL
Clouds: few clouds at 500 feet AGL
broken clouds at 700 feet AGL
Weather: -DZ  (light drizzle)

METAR text: EDDB 251420Z 28010KT 6000 -DZ FEW006 BKN008 04/03 Q1030 TEMPO 4000 -DZ
Conditions at: EDDB (BERLIN/BRANDERNB, DE) observed 1420 UTC 25 January 2022
Temperature: 4.0°C (39°F)
Dewpoint: 3.0°C (37°F) [RH = 93%]
Pressure (altimeter): 30.41 inches Hg (1030.0 mb)
Winds: from the W (280 degrees) at 12 MPH (10 knots; 5.1 m/s)
Visibility: 4 miles ( 6 km)
Ceiling: 800 feet AGL
Clouds: few clouds at 600 feet AGL
broken clouds at 800 feet AGL
Weather: -DZ  (light drizzle)

Forecast for: EDDB (BERLIN/BRANDERNB, DE)
Text: TAF EDDB 251100Z 2512/2612 27008KT 8000 BKN008
Forecast period: 1200 UTC 25 January 2022 to 1200 UTC 26 January 2022
Forecast type: FROM: standard forecast or significant change
Winds: from the W (270 degrees) at 9 MPH (8 knots; 4.1 m/s)
Visibility: 5 miles (8 km)
Ceiling: 800 feet AGL
Clouds: broken clouds at 800 feet AGL
Weather: no significant weather forecast for this period
Text: TEMPO 2512/2606 4500 -DZ BKN004
Forecast period: 1200 UTC 25 January 2022 to 0600 UTC 26 January 2022
Forecast type: TEMPORARY: The following changes expected for less than half the time period
Visibility: 2.80 miles (4.51 km)
Ceiling: 400 feet AGL
Clouds: broken clouds at 400 feet AGL
Weather: -DZ  (light drizzle)

 AIRPORT MAP

 RUNWAY INFORMATION
Runway 07R Runway length 9843 ft Runway width 148 ft
Runway elevation 146 ft Runway displaced threshold 0 ft Runway heading 69
Runway 25L Runway length 9843 ft Runway width 148 ft
Runway elevation 155 ft Runway displaced threshold 0 ft Runway heading 249
Runway 07L Runway length 8891 ft Runway width 148 ft
Runway elevation 148 ft Runway displaced threshold 0 ft Runway heading 69
Runway 25R Runway length 8891 ft Runway width 148 ft
Runway elevation 145 ft Runway displaced threshold 0 ft Runway heading 249

 AIRPORT FREQUENCIES
Type AFIS Name BERLIN INF Frequency 132.65 MHZ
Type APP Name BERLIN ARR Frequency 119.625 MHZ
Type ATIS Name ATIS Frequency 123.78 MHZ
Type DEP Name BERLIN DEP Frequency 120.625 MHZ
Type DIR Name BERLIN DIR Frequency 136.1 MHZ
Type GND Name GND Frequency 121.6 MHZ
Type INFO Name INFO Frequency 122.7 MHZ
Type TWR Name North Frequency 120.03 MHZ

 AIRPORT NEAR NAVIGATION AIDS
Type DME Name Schonefeld Frequency 114400 KHZ
Type NDB Name Schonefeld Frequency 362 KHZ